Saint Clement, Missouri
Current Conditions -  °F | °C
As of 5:15 AM on Thursday 23 Oct 2014 (Local Time) from KPPQ Reporting Station
Clear Clear  
Wind Chill:   Ceiling: Unl
Heat Index:   Visibility: 10mi
Dew Point:   Wind: 5mph
Humidity: 80%   Direction: 190°S
Pressure: 30.18"   Gusts: NA
Location:  39.321°N, 91.1912°W
Report Text: KPPQ 231015Z AUTO 19004KT 10SM CLR 08/05 A3018 RMK AO2 T00800048
Loading
Personal Weather Stations






























Interactive Weather Map
Tropical Storm Tracking
New forecast layout! Learn more

10-Day Weather Forecast

Advertisements
Track Severe Weather on mobile